Time;durP1;ratioP1;P1;durP2;ratioP2;P2;SDS_P1;SDS_P2;PMS_P1;PMS_P2;Temp;Humidity;BMP_temperature;BMP_pressure;BME280_temperature;BME280_humidity;BME280_pressure;Samples;Min_cycle;Max_cycle;Signal;HPM_P1;HPM_P2
2023/08/28 00:02:20;;;;;;;6.73;5.23;;;11.50;1.00;;;;;;5120124;28;20550;-59
2023/08/28 00:04:47;;;;;;;5.43;4.93;;;11.50;1.00;;;;;;5119160;28;20550;-59
2023/08/28 00:07:16;;;;;;;6.13;4.80;;;11.50;99.90;;;;;;5120043;28;20594;-59
2023/08/28 00:09:44;;;;;;;6.40;5.20;;;11.50;99.90;;;;;;5119850;28;20478;-59
2023/08/28 00:12:11;;;;;;;9.23;5.73;;;11.50;99.90;;;;;;5120035;28;20461;-59
2023/08/28 00:14:38;;;;;;;6.00;5.40;;;11.50;99.90;;;;;;5119320;28;20463;-59
2023/08/28 00:17:06;;;;;;;8.10;5.93;;;11.50;99.90;;;;;;5119281;28;20456;-59
2023/08/28 00:19:33;;;;;;;6.13;5.63;;;11.40;99.90;;;;;;5120212;28;20548;-59
2023/08/28 00:22:00;;;;;;;7.40;5.60;;;11.40;99.90;;;;;;5120105;28;20459;-59
2023/08/28 00:24:29;;;;;;;8.30;6.23;;;11.40;99.90;;;;;;5120059;28;20550;-59
2023/08/28 00:26:56;;;;;;;6.67;6.07;;;11.40;99.90;;;;;;5119214;28;20487;-59
2023/08/28 00:29:23;;;;;;;5.73;5.23;;;11.40;99.90;;;;;;5120034;28;20491;-59
2023/08/28 00:31:50;;;;;;;6.73;6.03;;;11.30;99.90;;;;;;5120117;28;20465;-59
2023/08/28 00:34:18;;;;;;;7.40;5.73;;;11.20;99.90;;;;;;5119868;28;20479;-59
2023/08/28 00:36:45;;;;;;;6.43;5.83;;;11.20;99.90;;;;;;5119347;28;20479;-59
2023/08/28 00:39:12;;;;;;;7.93;5.70;;;11.20;99.90;;;;;;5118627;28;20467;-59
2023/08/28 00:41:41;;;;;;;6.27;5.67;;;11.10;99.90;;;;;;5119920;28;20899;-58
2023/08/28 00:44:09;;;;;;;5.93;5.33;;;11.10;99.90;;;;;;5119314;28;20893;-59
2023/08/28 00:46:36;;;;;;;5.97;5.47;;;11.10;99.90;;;;;;5119406;28;20586;-59
2023/08/28 00:49:03;;;;;;;6.83;6.17;;;11.20;99.90;;;;;;5118273;28;20575;-59
2023/08/28 00:51:31;;;;;;;6.73;6.13;;;11.20;99.90;;;;;;5119329;28;20459;-59
2023/08/28 00:53:58;;;;;;;6.67;6.07;;;11.20;99.90;;;;;;5119428;28;20546;-59
2023/08/28 00:56:29;;;;;;;7.37;6.63;;;11.20;99.90;;;;;;5118159;28;20538;-59
2023/08/28 00:58:57;;;;;;;7.90;6.40;;;11.20;99.90;;;;;;5118580;28;20452;-59
2023/08/28 01:01:25;;;;;;;7.00;6.30;;;11.10;99.90;;;;;;5118232;28;20546;-59
2023/08/28 01:03:52;;;;;;;6.30;5.77;;;11.00;99.90;;;;;;5119157;28;20550;-59
2023/08/28 01:06:29;;;;;;;7.27;6.57;;;11.00;99.90;;;;;;5118392;28;20958;-59
2023/08/28 01:09:06;;;;;;;6.43;5.70;;;11.00;99.90;;;;;;5119058;28;20463;-59
2023/08/28 01:11:38;;;;;;;6.63;6.03;;;11.00;99.90;;;;;;5117856;28;20506;-59
2023/08/28 01:14:16;;;;;;;6.00;5.50;;;11.00;99.90;;;;;;5118217;28;20459;-59
2023/08/28 01:16:45;;;;;;;7.50;6.57;;;11.00;99.90;;;;;;5117907;28;20498;-59
2023/08/28 01:19:26;;;;;;;6.63;6.03;;;11.00;99.90;;;;;;5118597;28;20558;-59
2023/08/28 01:22:00;;;;;;;8.00;7.20;;;11.00;99.90;;;;;;5118514;28;20514;-59
2023/08/28 01:24:31;;;;;;;7.43;5.73;;;10.90;99.90;;;;;;5118950;28;20545;-59
2023/08/28 01:27:00;;;;;;;7.20;6.17;;;10.80;99.90;;;;;;5117876;28;20582;-60
2023/08/28 01:29:29;;;;;;;7.63;6.93;;;10.80;99.90;;;;;;5114354;28;20465;-59
2023/08/28 01:31:56;;;;;;;7.90;7.20;;;10.90;99.90;;;;;;5118723;28;20455;-59
2023/08/28 01:34:23;;;;;;;7.83;7.13;;;10.90;99.90;;;;;;5118666;28;20538;-59
2023/08/28 01:36:58;;;;;;;7.43;6.83;;;10.90;99.90;;;;;;5117927;28;20484;-59
2023/08/28 01:39:34;;;;;;;6.30;5.80;;;10.90;99.90;;;;;;5117875;28;20962;-59
2023/08/28 01:42:02;;;;;;;8.27;7.47;;;10.90;99.90;;;;;;5118685;28;20482;-59
2023/08/28 01:44:33;;;;;;;8.20;7.40;;;10.90;99.90;;;;;;5118380;28;20935;-59
2023/08/28 01:47:00;;;;;;;8.03;6.87;;;11.00;99.90;;;;;;5118147;28;20941;-60
2023/08/28 01:49:29;;;;;;;8.77;7.97;;;10.90;99.90;;;;;;5117576;28;20543;-59
2023/08/28 01:51:56;;;;;;;9.17;8.27;;;10.90;99.90;;;;;;5117289;28;20460;-59
2023/08/28 01:54:25;;;;;;;7.93;7.10;;;10.90;99.90;;;;;;5118350;28;20836;-59
2023/08/28 01:56:53;;;;;;;9.57;8.00;;;10.80;99.90;;;;;;5117597;28;20520;-59
2023/08/28 01:59:21;;;;;;;7.50;6.90;;;10.80;99.90;;;;;;5118185;28;20457;-59
2023/08/28 02:01:48;;;;;;;8.47;7.67;;;10.80;99.90;;;;;;5117885;28;20554;-60
2023/08/28 02:04:15;;;;;;;7.47;6.83;;;10.70;99.90;;;;;;5117581;28;20546;-59
2023/08/28 02:06:43;;;;;;;8.40;7.20;;;10.80;99.90;;;;;;5118038;28;20531;-59
2023/08/28 02:09:11;;;;;;;9.53;8.30;;;10.70;99.90;;;;;;5118146;28;20463;-59
2023/08/28 02:11:38;;;;;;;8.97;8.20;;;10.70;99.90;;;;;;5117905;28;20892;-59
2023/08/28 02:14:05;;;;;;;9.00;8.30;;;10.70;99.90;;;;;;5116174;28;20516;-59
2023/08/28 02:16:38;;;;;;;8.17;7.33;;;10.70;99.90;;;;;;5118052;28;20508;-59
2023/08/28 02:19:05;;;;;;;7.03;6.43;;;10.70;99.90;;;;;;5118031;28;20459;-59
2023/08/28 02:21:34;;;;;;;7.77;7.07;;;10.70;99.90;;;;;;5117464;28;20542;-59
2023/08/28 02:24:01;;;;;;;7.80;6.80;;;10.70;99.90;;;;;;5118260;28;20571;-60
2023/08/28 02:26:28;;;;;;;9.90;9.00;;;10.70;99.90;;;;;;5117073;28;20546;-59
2023/08/28 02:28:55;;;;;;;9.93;8.23;;;10.80;99.90;;;;;;5117537;28;20482;-59
2023/08/28 02:31:22;;;;;;;10.10;8.27;;;10.70;99.90;;;;;;5117669;28;20903;-59
2023/08/28 02:33:51;;;;;;;9.93;9.03;;;10.80;99.90;;;;;;5117243;28;20538;-60
2023/08/28 02:36:18;;;;;;;9.57;8.67;;;10.80;99.90;;;;;;5116421;28;20482;-59
2023/08/28 02:38:45;;;;;;;10.10;9.10;;;10.90;99.90;;;;;;5116916;28;20550;-59
2023/08/28 02:41:13;;;;;;;9.50;8.60;;;11.00;99.90;;;;;;5117306;28;20554;-60
2023/08/28 02:43:40;;;;;;;13.47;8.17;;;11.00;99.90;;;;;;5117436;28;20965;-60
2023/08/28 02:46:07;;;;;;;9.10;8.20;;;11.10;99.90;;;;;;5117945;28;20767;-60
2023/08/28 02:48:35;;;;;;;8.40;7.20;;;11.10;99.90;;;;;;5116849;28;20931;-59
2023/08/28 02:51:03;;;;;;;7.70;7.00;;;11.10;99.90;;;;;;5115416;28;20482;-59
2023/08/28 02:53:30;;;;;;;8.33;7.40;;;11.20;99.90;;;;;;5117378;28;20456;-59
2023/08/28 02:56:23;;;;;;;8.23;7.43;;;11.20;99.90;;;;;;5117720;28;20509;-60
2023/08/28 02:58:51;;;;;;;8.67;7.43;;;11.20;99.90;;;;;;5117675;28;20426;-60
2023/08/28 03:01:18;;;;;;;8.53;7.73;;;11.20;99.90;;;;;;5116418;28;20508;-59
2023/08/28 03:03:46;;;;;;;12.40;7.77;;;11.20;99.90;;;;;;5117234;28;20558;-60
2023/08/28 03:06:15;;;;;;;8.83;7.30;;;11.20;99.90;;;;;;5117837;28;20513;-60
2023/08/28 03:08:42;;;;;;;8.33;7.53;;;11.20;99.90;;;;;;5117409;28;20544;-60
2023/08/28 03:11:10;;;;;;;9.47;8.57;;;11.20;99.90;;;;;;5116219;28;20509;-60
2023/08/28 03:13:37;;;;;;;8.47;7.67;;;11.20;99.90;;;;;;5117153;28;20456;-60
2023/08/28 03:16:05;;;;;;;9.63;8.73;;;11.20;99.90;;;;;;5117206;28;20498;-60
2023/08/28 03:18:32;;;;;;;8.83;7.93;;;11.20;99.90;;;;;;5117717;28;20509;-60
2023/08/28 03:20:59;;;;;;;10.17;7.83;;;11.10;99.90;;;;;;5116282;28;20558;-60
2023/08/28 03:23:28;;;;;;;9.30;8.30;;;11.10;99.90;;;;;;5116615;28;20463;-60
2023/08/28 03:25:55;;;;;;;9.77;8.77;;;11.00;99.90;;;;;;5117619;28;20463;-60
2023/08/28 03:28:22;;;;;;;9.67;8.77;;;10.90;99.90;;;;;;5116697;28;20801;-60
2023/08/28 03:30:49;;;;;;;10.97;10.03;;;10.90;99.90;;;;;;5116950;28;20951;-60
2023/08/28 03:33:17;;;;;;;11.17;10.07;;;10.90;99.90;;;;;;5116263;28;20495;-60
2023/08/28 03:35:44;;;;;;;11.27;10.17;;;10.80;99.90;;;;;;5116057;28;20878;-60
2023/08/28 03:38:11;;;;;;;10.37;9.47;;;10.90;99.90;;;;;;5117036;28;20869;-60
2023/08/28 03:40:39;;;;;;;10.83;9.67;;;10.80;99.90;;;;;;5116927;28;20456;-59
2023/08/28 03:43:09;;;;;;;12.73;11.60;;;10.70;99.90;;;;;;5116925;28;20477;-60
2023/08/28 03:45:36;;;;;;;13.33;11.40;;;10.70;99.90;;;;;;5119364;28;20459;-60
2023/08/28 03:48:07;;;;;;;11.83;10.73;;;10.70;99.90;;;;;;5120413;28;20530;-60
2023/08/28 03:50:34;;;;;;;15.53;14.03;;;10.80;99.90;;;;;;5103986;28;20491;-60
2023/08/28 03:53:02;;;;;;;14.03;12.70;;;10.90;99.90;;;;;;5120783;28;20508;-60
2023/08/28 03:55:32;;;;;;;15.57;14.07;;;10.90;99.90;;;;;;5120657;28;20512;-59
2023/08/28 03:58:02;;;;;;;16.70;15.00;;;10.80;99.90;;;;;;5120616;28;20455;-60
2023/08/28 04:00:30;;;;;;;14.90;13.53;;;10.80;99.90;;;;;;5119649;28;20451;-60
2023/08/28 04:02:57;;;;;;;14.97;13.57;;;10.80;99.90;;;;;;5119659;28;20491;-60
2023/08/28 04:05:26;;;;;;;14.23;12.93;;;10.70;99.90;;;;;;5120420;28;20797;-60
2023/08/28 04:07:54;;;;;;;15.07;13.57;;;10.70;99.90;;;;;;5120279;28;20790;-60
2023/08/28 04:10:21;;;;;;;13.87;12.43;;;10.60;99.90;;;;;;5119499;28;20948;-60
2023/08/28 04:12:49;;;;;;;14.70;13.33;;;10.60;99.90;;;;;;5119349;28;20493;-60
2023/08/28 04:15:19;;;;;;;14.27;12.70;;;10.60;99.90;;;;;;5119063;28;20810;-61
2023/08/28 04:17:47;;;;;;;15.60;14.10;;;10.60;99.90;;;;;;5120479;28;20876;-60
2023/08/28 04:20:16;;;;;;;17.10;15.40;;;10.50;99.90;;;;;;5121156;27;20452;-60
2023/08/28 04:22:44;;;;;;;16.60;15.10;;;10.50;99.90;;;;;;5117919;28;20491;-61
2023/08/28 04:25:12;;;;;;;15.20;13.80;;;10.50;99.90;;;;;;5117622;28;20463;-60
2023/08/28 04:27:40;;;;;;;15.60;14.07;;;10.50;99.90;;;;;;5095717;28;20488;-59
2023/08/28 04:30:09;;;;;;;14.90;13.50;;;10.50;99.90;;;;;;5117230;28;20508;-61
2023/08/28 04:32:38;;;;;;;14.70;13.07;;;10.50;99.90;;;;;;5116430;28;20525;-60
2023/08/28 04:35:07;;;;;;;14.10;12.70;;;10.60;99.90;;;;;;5117349;28;20547;-61
2023/08/28 04:37:34;;;;;;;14.63;13.17;;;10.60;99.90;;;;;;5118916;28;20459;-60
2023/08/28 04:40:01;;;;;;;14.27;12.97;;;10.60;99.90;;;;;;5118146;28;20458;-61
2023/08/28 04:42:28;;;;;;;13.57;12.37;;;10.50;99.90;;;;;;5117170;28;20461;-61
2023/08/28 04:44:56;;;;;;;14.27;12.77;;;10.50;99.90;;;;;;5117216;28;20455;-60
2023/08/28 04:47:23;;;;;;;15.90;14.40;;;10.40;99.90;;;;;;5117389;28;20494;-61
2023/08/28 04:49:51;;;;;;;15.87;14.27;;;10.50;99.90;;;;;;5117410;28;20464;-60
2023/08/28 04:52:19;;;;;;;13.67;12.30;;;10.50;99.90;;;;;;5117790;28;20472;-60
2023/08/28 04:54:46;;;;;;;15.57;13.90;;;10.40;99.90;;;;;;5118303;28;20460;-60
2023/08/28 04:57:14;;;;;;;15.87;14.20;;;10.40;99.90;;;;;;5117732;28;20546;-60
2023/08/28 04:59:41;;;;;;;14.93;13.37;;;10.50;99.90;;;;;;5118892;28;20542;-61
2023/08/28 05:02:08;;;;;;;15.90;12.80;;;10.60;99.90;;;;;;5119157;28;20495;-61
2023/08/28 05:04:35;;;;;;;13.30;12.00;;;10.60;99.90;;;;;;5118515;28;20447;-60
2023/08/28 05:07:05;;;;;;;14.10;12.80;;;10.60;99.90;;;;;;5118649;28;20455;-61
2023/08/28 05:09:32;;;;;;;15.37;12.30;;;10.60;99.90;;;;;;5117948;28;20847;-60
2023/08/28 05:11:59;;;;;;;14.30;12.90;;;10.60;99.90;;;;;;5118307;28;20554;-60
2023/08/28 05:14:28;;;;;;;15.57;14.07;;;10.50;99.90;;;;;;5118551;28;20488;-61
2023/08/28 05:16:55;;;;;;;15.37;13.40;;;10.60;99.90;;;;;;5118590;28;20813;-61
2023/08/28 05:19:22;;;;;;;14.53;13.07;;;10.60;99.90;;;;;;5118456;28;20457;-61
2023/08/28 05:21:49;;;;;;;16.93;13.73;;;10.70;99.90;;;;;;5117501;28;20467;-61
2023/08/28 05:24:18;;;;;;;19.23;13.10;;;10.90;99.90;;;;;;5118898;28;20486;-61
2023/08/28 05:26:45;;;;;;;15.40;13.80;;;11.00;99.90;;;;;;5118382;28;20483;-61
2023/08/28 05:29:12;;;;;;;15.87;14.27;;;11.10;99.90;;;;;;5118307;28;20861;-61
2023/08/28 05:31:40;;;;;;;15.63;12.93;;;11.20;99.90;;;;;;5117596;28;20555;-62
2023/08/28 05:34:08;;;;;;;15.33;13.83;;;11.30;99.90;;;;;;5115932;28;20499;-61
2023/08/28 05:36:36;;;;;;;17.10;15.20;;;11.50;99.90;;;;;;5113244;28;20480;-62
2023/08/28 05:39:03;;;;;;;15.77;14.27;;;11.50;99.90;;;;;;5097836;28;20507;-63
2023/08/28 05:41:32;;;;;;;16.10;14.50;;;11.70;99.90;;;;;;5097184;28;20470;-62
2023/08/28 05:43:59;;;;;;;14.33;12.83;;;11.70;99.90;;;;;;5097876;28;20496;-62
2023/08/28 05:46:26;;;;;;;16.10;14.50;;;11.80;99.90;;;;;;5098014;28;20466;-62
2023/08/28 05:48:53;;;;;;;15.90;14.30;;;11.90;99.90;;;;;;5097827;28;20531;-62
2023/08/28 05:51:20;;;;;;;15.57;13.93;;;12.00;99.90;;;;;;5096692;28;20559;-63
2023/08/28 05:53:48;;;;;;;14.70;13.20;;;12.10;99.90;;;;;;5096792;28;20465;-62
2023/08/28 05:56:15;;;;;;;16.50;14.27;;;12.20;99.90;;;;;;5096654;28;20464;-63
2023/08/28 05:58:43;;;;;;;14.70;12.80;;;12.20;99.90;;;;;;5091401;28;20456;-62
2023/08/28 06:01:11;;;;;;;14.53;13.17;;;12.30;99.90;;;;;;5097365;28;20487;-63
2023/08/28 06:03:38;;;;;;;14.13;12.73;;;12.40;99.90;;;;;;5093399;28;20460;-63
2023/08/28 06:06:06;;;;;;;14.27;13.03;;;12.60;99.90;;;;;;5095267;28;20464;-62
2023/08/28 06:08:33;;;;;;;15.30;13.80;;;12.70;99.90;;;;;;5094586;28;20503;-63
2023/08/28 06:11:00;;;;;;;16.03;13.80;;;12.70;99.90;;;;;;5078446;28;20887;-63
2023/08/28 06:13:28;;;;;;;18.50;12.63;;;12.80;99.90;;;;;;5095188;28;20513;-63
2023/08/28 06:15:56;;;;;;;14.67;13.30;;;12.90;99.90;;;;;;5095989;28;20496;-63
2023/08/28 06:18:23;;;;;;;14.10;12.70;;;13.00;99.90;;;;;;5095919;28;20900;-62
2023/08/28 06:20:50;;;;;;;13.47;11.73;;;13.00;99.90;;;;;;5097209;28;20543;-62
2023/08/28 06:23:18;;;;;;;14.33;13.00;;;13.00;99.90;;;;;;5096827;28;20453;-62
2023/08/28 06:25:47;;;;;;;14.23;12.57;;;13.20;99.90;;;;;;5095046;28;20480;-63
2023/08/28 06:28:15;;;;;;;12.90;11.60;;;13.30;99.90;;;;;;5095755;28;20794;-62
2023/08/28 06:30:42;;;;;;;13.47;12.27;;;13.40;54.70;;;;;;5095395;28;20485;-62
2023/08/28 06:33:11;;;;;;;12.00;10.90;;;13.60;92.00;;;;;;5095520;28;20551;-62
2023/08/28 06:35:38;;;;;;;15.83;11.57;;;13.70;34.00;;;;;;5099490;28;20890;-62
2023/08/28 06:38:05;;;;;;;11.73;10.33;;;13.50;1.00;;;;;;5095858;28;20565;-63
2023/08/28 06:40:33;;;;;;;13.00;11.70;;;13.60;1.00;;;;;;5108846;28;20897;-62
2023/08/28 06:43:00;;;;;;;13.00;11.90;;;13.60;1.00;;;;;;5095686;28;20492;-63
2023/08/28 06:45:27;;;;;;;13.33;11.93;;;13.80;1.00;;;;;;5097839;28;20465;-62
2023/08/28 06:47:57;;;;;;;13.43;10.53;;;13.90;1.00;;;;;;5111625;28;20482;-63
2023/08/28 06:50:26;;;;;;;12.10;10.77;;;14.00;1.00;;;;;;5098347;28;20468;-61
2023/08/28 06:52:53;;;;;;;12.40;11.20;;;14.20;1.00;;;;;;5096744;28;20487;-62
2023/08/28 06:55:21;;;;;;;15.73;11.97;;;14.30;1.00;;;;;;5096533;28;20495;-61
2023/08/28 06:57:48;;;;;;;10.83;9.93;;;14.30;1.00;;;;;;5101995;28;20555;-62
2023/08/28 07:00:16;;;;;;;11.97;10.77;;;14.30;99.90;;;;;;5099719;28;20468;-62
2023/08/28 07:02:44;;;;;;;11.87;10.70;;;14.20;99.90;;;;;;5090632;28;20685;-62
2023/08/28 07:05:11;;;;;;;11.40;10.30;;;14.30;99.90;;;;;;5094069;28;20460;-62
2023/08/28 07:07:39;;;;;;;11.40;10.40;;;14.50;1.00;;;;;;5094982;28;20552;-62
2023/08/28 07:10:08;;;;;;;11.33;10.23;;;14.50;99.90;;;;;;5094277;28;20516;-61
2023/08/28 07:12:35;;;;;;;13.80;10.10;;;14.60;57.20;;;;;;5107910;28;20780;-62
2023/08/28 07:15:50;;;;;;;11.10;10.03;;;14.60;1.00;;;;;;5093864;28;20461;-62
2023/08/28 07:18:17;;;;;;;11.73;10.60;;;14.70;1.00;;;;;;5097234;28;20468;-61
2023/08/28 07:20:44;;;;;;;12.07;10.77;;;14.90;1.00;;;;;;5113793;28;20463;-61
2023/08/28 07:23:13;;;;;;;11.63;9.97;;;14.90;1.00;;;;;;5108032;28;20466;-61
2023/08/28 07:25:40;;;;;;;11.77;10.57;;;15.10;1.00;;;;;;5100481;28;20456;-61
2023/08/28 07:28:08;;;;;;;12.93;10.23;;;15.40;1.00;;;;;;5100160;28;20456;-60
2023/08/28 07:30:35;;;;;;;13.07;11.60;;;15.60;1.00;;;;;;5100394;28;20455;-61
2023/08/28 07:33:02;;;;;;;14.17;11.83;;;15.90;1.00;;;;;;5100967;28;20464;-61
2023/08/28 07:35:34;;;;;;;15.43;12.77;;;16.10;99.90;;;;;;5104203;28;20983;-60
2023/08/28 07:38:04;;;;;;;14.77;12.47;;;16.20;99.90;;;;;;5120916;28;20451;-60
2023/08/28 07:40:34;;;;;;;19.10;12.87;;;16.40;1.00;;;;;;5120961;28;20888;-60
2023/08/28 07:43:02;;;;;;;13.90;11.67;;;16.60;99.90;;;;;;5119402;28;20908;-60
2023/08/28 07:45:30;;;;;;;14.50;12.00;;;16.70;1.00;;;;;;5119980;28;20466;-60
2023/08/28 07:47:59;;;;;;;13.83;12.43;;;16.90;33.90;;;;;;5119421;28;20452;-60
2023/08/28 07:50:28;;;;;;;13.90;11.60;;;17.10;99.90;;;;;;5119237;28;20504;-60
2023/08/28 07:52:55;;;;;;;12.83;11.43;;;17.30;1.00;;;;;;5118977;28;20463;-60
2023/08/28 07:55:22;;;;;;;14.13;11.83;;;17.60;99.90;;;;;;5120562;28;20497;-59
2023/08/28 07:57:51;;;;;;;12.57;11.30;;;18.20;99.90;;;;;;5118942;28;20545;-59
2023/08/28 08:00:20;;;;;;;12.23;10.93;;;18.60;99.90;;;;;;5118764;28;20482;-60
2023/08/28 08:02:48;;;;;;;13.43;12.13;;;18.30;1.00;;;;;;5118610;28;20480;-60
2023/08/28 08:05:16;;;;;;;15.17;13.77;;;18.40;1.00;;;;;;5118580;28;20451;-61
2023/08/28 08:07:44;;;;;;;14.27;12.93;;;17.60;1.00;;;;;;5118096;28;20463;-61
2023/08/28 08:10:12;;;;;;;14.23;12.73;;;17.80;99.90;;;;;;5118731;28;20887;-60
2023/08/28 08:12:39;;;;;;;12.10;10.93;;;18.10;99.90;;;;;;5117949;28;20558;-59
2023/08/28 08:15:09;;;;;;;11.50;10.30;;;18.50;99.90;;;;;;5118709;28;20500;-60
2023/08/28 08:17:37;;;;;;;11.33;10.20;;;19.00;99.90;;;;;;5119008;28;20943;-59
2023/08/28 08:20:09;;;;;;;11.03;10.03;;;19.40;1.00;;;;;;5119245;28;20466;-60
2023/08/28 08:22:37;;;;;;;11.47;10.47;;;19.40;99.90;;;;;;5118519;28;20757;-60
2023/08/28 08:25:06;;;;;;;12.13;10.93;;;19.20;99.90;;;;;;5119689;28;20458;-59
2023/08/28 08:27:34;;;;;;;12.20;9.70;;;18.60;30.00;;;;;;5119486;28;20992;-60
2023/08/28 08:30:04;;;;;;;10.60;9.60;;;18.30;99.90;;;;;;5119143;28;20491;-60
2023/08/28 08:32:33;;;;;;;9.10;7.80;;;18.00;99.90;;;;;;5118577;28;20822;-60
2023/08/28 08:35:00;;;;;;;8.77;7.40;;;18.00;99.90;;;;;;5118678;28;20455;-60
2023/08/28 08:37:28;;;;;;;6.90;6.30;;;18.30;99.90;;;;;;5114135;28;20853;-59
2023/08/28 08:39:55;;;;;;;7.77;7.00;;;18.90;99.90;;;;;;5099094;28;20551;-59
2023/08/28 08:42:22;;;;;;;8.00;6.93;;;19.50;99.90;;;;;;5099298;28;20497;-61
2023/08/28 08:44:50;;;;;;;12.07;7.20;;;20.00;99.90;;;;;;5098873;28;20492;-59
2023/08/28 08:47:17;;;;;;;7.67;6.67;;;20.40;36.30;;;;;;5098437;28;20564;-60
2023/08/28 08:49:51;;;;;;;8.60;6.37;;;20.60;1.00;;;;;;5105285;28;21000;-60
2023/08/28 08:52:21;;;;;;;8.23;7.43;;;20.60;1.00;;;;;;5098470;28;20952;-59
2023/08/28 08:54:53;;;;;;;9.63;7.83;;;20.70;1.00;;;;;;5098973;28;20800;-60
2023/08/28 08:57:26;;;;;;;9.50;8.60;;;20.80;1.00;;;;;;5107765;28;20460;-60
2023/08/28 08:59:55;;;;;;;8.77;7.93;;;20.90;1.00;;;;;;5098401;28;20452;-60
2023/08/28 09:02:22;;;;;;;9.23;7.80;;;20.90;1.00;;;;;;5098770;28;20487;-60
2023/08/28 09:04:51;;;;;;;8.13;7.20;;;20.60;1.00;;;;;;5098464;28;20503;-60
2023/08/28 09:07:19;;;;;;;8.83;7.70;;;20.20;1.00;;;;;;5098481;28;20830;-60
2023/08/28 09:09:47;;;;;;;9.10;8.20;;;20.40;1.00;;;;;;5100032;28;20606;-60
2023/08/28 09:12:16;;;;;;;8.87;7.87;;;20.20;1.00;;;;;;5117907;28;20516;-60
2023/08/28 09:14:43;;;;;;;10.27;9.17;;;19.20;1.00;;;;;;5106993;28;20464;-61
2023/08/28 09:17:10;;;;;;;9.63;8.50;;;19.60;27.90;;;;;;5097030;28;20457;-60
2023/08/28 09:19:38;;;;;;;10.20;9.33;;;19.20;1.00;;;;;;5096830;28;20476;-61
2023/08/28 09:22:06;;;;;;;11.37;10.27;;;18.60;1.00;;;;;;5097019;28;20488;-60
2023/08/28 09:24:34;;;;;;;9.60;8.80;;;18.40;92.70;;;;;;5099636;28;20461;-61
2023/08/28 09:27:03;;;;;;;10.33;9.10;;;18.50;99.90;;;;;;5097147;28;20514;-60
2023/08/28 09:29:30;;;;;;;9.73;8.90;;;18.50;1.00;;;;;;5097195;28;20489;-60
2023/08/28 09:32:03;;;;;;;9.10;8.20;;;18.60;1.00;;;;;;5105227;28;20495;-59
2023/08/28 09:34:39;;;;;;;10.60;8.67;;;18.70;31.50;;;;;;5106239;28;20465;-60
2023/08/28 09:37:11;;;;;;;9.10;8.40;;;18.70;78.60;;;;;;5115533;28;20916;-59
2023/08/28 09:39:41;;;;;;;8.10;7.50;;;18.90;1.00;;;;;;5118219;28;20455;-60
2023/08/28 09:42:10;;;;;;;9.00;8.07;;;19.30;1.00;;;;;;5117161;28;20868;-60
2023/08/28 09:44:37;;;;;;;10.03;9.10;;;19.60;1.00;;;;;;5111727;28;20461;-60
2023/08/28 09:47:06;;;;;;;10.60;9.60;;;19.30;1.00;;;;;;5111592;28;20908;-60
2023/08/28 09:49:43;;;;;;;11.57;10.20;;;19.60;1.00;;;;;;5116730;28;20491;-61
2023/08/28 09:52:13;;;;;;;12.73;10.73;;;19.90;1.00;;;;;;5115908;28;20857;-60
2023/08/28 09:54:40;;;;;;;10.97;10.07;;;19.70;1.00;;;;;;5115546;28;20472;-60
2023/08/28 09:57:16;;;;;;;9.70;8.80;;;19.60;1.00;;;;;;5116440;28;20558;-60
2023/08/28 09:59:43;;;;;;;9.80;8.90;;;19.60;1.00;;;;;;5116273;28;20538;-61
2023/08/28 10:02:17;;;;;;;10.00;9.20;;;19.80;1.00;;;;;;5116648;28;20907;-61
2023/08/28 10:04:45;;;;;;;10.13;9.17;;;19.50;1.00;;;;;;5115998;28;20459;-60
2023/08/28 10:07:14;;;;;;;10.93;10.03;;;19.50;1.00;;;;;;5118077;28;20485;-60
2023/08/28 10:09:44;;;;;;;10.03;9.33;;;19.50;1.00;;;;;;5117731;28;20523;-61
2023/08/28 10:12:12;;;;;;;9.40;8.60;;;19.70;1.00;;;;;;5117750;28;20467;-60
2023/08/28 10:14:40;;;;;;;9.73;8.63;;;19.50;1.00;;;;;;5117235;28;20513;-61
2023/08/28 10:17:11;;;;;;;10.30;9.50;;;19.50;1.00;;;;;;5114644;28;20464;-60
2023/08/28 10:19:43;;;;;;;7.77;7.07;;;19.60;1.00;;;;;;5117967;28;20497;-60
2023/08/28 10:22:11;;;;;;;8.90;8.10;;;19.40;1.00;;;;;;5116244;28;20873;-61
2023/08/28 10:24:42;;;;;;;8.23;7.50;;;19.10;1.00;;;;;;5117471;28;20543;-60
2023/08/28 10:27:11;;;;;;;9.83;8.93;;;18.80;1.00;;;;;;5115987;28;20799;-61
2023/08/28 10:29:40;;;;;;;9.23;8.53;;;18.50;1.00;;;;;;5117589;28;20924;-60
2023/08/28 10:32:10;;;;;;;9.43;8.50;;;18.50;1.00;;;;;;5117640;28;20456;-60
2023/08/28 10:34:39;;;;;;;11.17;10.20;;;18.40;1.00;;;;;;5117005;28;20456;-60
2023/08/28 10:37:08;;;;;;;10.93;9.97;;;18.70;1.00;;;;;;5115059;28;20523;-63
2023/08/28 10:39:37;;;;;;;9.73;9.03;;;18.70;1.00;;;;;;5116168;28;20452;-62
2023/08/28 10:42:08;;;;;;;10.43;9.53;;;19.10;1.00;;;;;;5116296;28;20463;-62
2023/08/28 10:44:36;;;;;;;10.80;9.93;;;20.00;1.00;;;;;;5116263;28;20860;-62
2023/08/28 10:47:04;;;;;;;9.07;8.27;;;20.60;1.00;;;;;;5116046;28;20975;-63
2023/08/28 10:49:33;;;;;;;8.87;8.10;;;20.60;99.90;;;;;;5114822;28;20491;-63
2023/08/28 10:52:06;;;;;;;8.30;7.60;;;19.90;99.90;;;;;;5116916;28;20455;-63
2023/08/28 10:54:38;;;;;;;9.90;9.10;;;19.90;99.90;;;;;;5115271;28;20506;-62
2023/08/28 10:57:11;;;;;;;13.07;8.80;;;20.00;99.90;;;;;;5114948;28;20485;-62
2023/08/28 10:59:45;;;;;;;8.43;7.67;;;20.50;99.90;;;;;;5115606;28;20761;-63
2023/08/28 11:02:13;;;;;;;8.37;7.60;;;20.40;1.00;;;;;;5121137;28;20454;-62
2023/08/28 11:04:41;;;;;;;8.80;8.10;;;20.30;1.00;;;;;;5120488;28;20459;-62
2023/08/28 11:07:47;;;;;;;8.57;7.73;;;21.00;1.00;;;;;;5120215;28;20451;-62
2023/08/28 11:10:20;;;;;;;7.17;6.57;;;21.70;1.00;;;;;;5121225;28;20519;-62
2023/08/28 11:12:56;;;;;;;7.50;6.80;;;22.00;1.00;;;;;;5120081;28;21019;-62
2023/08/28 11:15:28;;;;;;;8.03;7.33;;;22.20;1.00;;;;;;5120495;28;20462;-62
2023/08/28 11:18:14;;;;;;;8.20;7.40;;;20.70;1.00;;;;;;5120834;28;20473;-62
2023/08/28 11:20:41;;;;;;;6.60;6.00;;;21.00;1.00;;;;;;5120822;28;20870;-62
2023/08/28 11:23:09;;;;;;;5.87;5.37;;;21.10;1.00;;;;;;5120797;28;20550;-62
2023/08/28 11:25:37;;;;;;;5.60;4.93;;;20.50;1.00;;;;;;5119614;28;20512;-63
2023/08/28 11:28:26;;;;;;;5.10;4.70;;;20.00;1.00;;;;;;5120947;28;20491;-60
2023/08/28 11:30:59;;;;;;;5.83;5.33;;;20.10;1.00;;;;;;5120535;28;20487;-60
2023/08/28 11:33:27;;;;;;;6.60;6.00;;;20.90;1.00;;;;;;5120611;28;20943;-59
2023/08/28 11:36:01;;;;;;;5.50;5.00;;;20.50;1.00;;;;;;5119343;28;20494;-60
2023/08/28 11:38:29;;;;;;;6.83;5.60;;;20.80;1.00;;;;;;5120760;28;20459;-60
2023/08/28 11:41:02;;;;;;;5.67;5.10;;;20.90;1.00;;;;;;5120785;28;20787;-60
2023/08/28 11:43:34;;;;;;;5.50;5.00;;;21.30;1.00;;;;;;5119385;28;20491;-60
2023/08/28 11:46:03;;;;;;;6.07;5.57;;;21.40;1.00;;;;;;5117978;28;20536;-61
2023/08/28 11:48:35;;;;;;;6.40;5.90;;;21.50;1.00;;;;;;5118245;28;20528;-60
2023/08/28 11:51:03;;;;;;;6.20;5.70;;;21.60;1.00;;;;;;5118773;28;20578;-60
2023/08/28 11:53:33;;;;;;;6.13;5.63;;;22.00;1.00;;;;;;5119735;28;20477;-60
2023/08/28 11:56:03;;;;;;;6.33;5.83;;;22.20;1.00;;;;;;5117631;28;20452;-60
2023/08/28 11:58:33;;;;;;;7.00;6.40;;;22.30;1.00;;;;;;5119913;27;20471;-61
2023/08/28 12:01:05;;;;;;;6.40;5.90;;;22.40;1.00;;;;;;5118962;28;20459;-60
2023/08/28 12:03:33;;;;;;;5.80;5.20;;;22.00;1.00;;;;;;5120493;28;20903;-60
2023/08/28 12:06:06;;;;;;;5.90;5.40;;;22.30;1.00;;;;;;5119699;28;20471;-61
2023/08/28 12:08:35;;;;;;;6.90;6.30;;;21.50;1.00;;;;;;5118765;28;20451;-60
2023/08/28 12:11:03;;;;;;;6.17;5.33;;;21.60;1.00;;;;;;5117936;28;20496;-61
2023/08/28 12:13:33;;;;;;;6.57;6.07;;;21.90;1.00;;;;;;5118891;28;20556;-60
2023/08/28 12:16:14;;;;;;;6.70;6.00;;;21.30;1.00;;;;;;5118110;28;20459;-60
2023/08/28 12:18:49;;;;;;;6.77;6.27;;;21.70;1.00;;;;;;5116799;28;20499;-60
2023/08/28 12:21:18;;;;;;;6.90;6.20;;;21.60;1.00;;;;;;5119937;28;20447;-60
2023/08/28 12:23:49;;;;;;;8.50;6.63;;;21.80;1.00;;;;;;5118963;28;20452;-60
2023/08/28 12:26:22;;;;;;;8.40;6.03;;;21.80;1.00;;;;;;5117135;28;20463;-60
2023/08/28 12:28:51;;;;;;;7.90;7.10;;;22.30;1.00;;;;;;5108318;28;20546;-61
2023/08/28 12:31:26;;;;;;;6.90;6.40;;;22.00;1.00;;;;;;5116079;28;20494;-60
2023/08/28 12:33:53;;;;;;;6.67;6.00;;;22.40;1.00;;;;;;5116768;28;20554;-60
2023/08/28 12:36:21;;;;;;;6.23;5.73;;;23.10;1.00;;;;;;5115844;28;20581;-60
2023/08/28 12:38:49;;;;;;;6.80;6.00;;;23.60;1.00;;;;;;5115980;28;20801;-61
2023/08/28 12:41:17;;;;;;;6.40;5.90;;;23.00;1.00;;;;;;5114791;28;20533;-61
2023/08/28 12:43:46;;;;;;;7.20;6.03;;;21.70;1.00;;;;;;5114550;28;20896;-61
2023/08/28 12:46:15;;;;;;;7.97;7.20;;;21.10;1.00;;;;;;5114190;28;20907;-61
2023/08/28 12:48:44;;;;;;;8.70;7.90;;;20.60;1.00;;;;;;5116156;28;20467;-61
2023/08/28 12:51:11;;;;;;;8.37;7.63;;;20.20;1.00;;;;;;5116134;28;20568;-60